Main page
METAR-TAF:

METAR-TAF

Airports :

La Grande/Union County Airport

La Grande, Oregon, United States

latitude: 45-17N, longitude: 118-00W, elevation: 2713 ft

Current weather observation

The report was made 35 minutes ago, at 04:56 UTC
Wind 5 mph from the West/Northwest
Temperature 37°F
Humidity 56%
Pressure 30.23 in. Hg
Visibility: 10 miles
Clear sky

METAR: KLGD 220456Z AUTO 30004KT 10SM CLR 03/M05 A3023 RMK AO2 SLP250 T00331050

Time: 22:31 (05:31 UTC)


TAF: missing

Weather observations and forecasts of more than 4000 airports (METAR and TAF reports).

The available stations are represented by yellow and red dots on the map.

Hover mouse over dot to see the name of the station.

Then click to see weather observations and forecasts.

To change the map : click on the green buttons with a black cross to zoom in, on the green button with a dash to zoom out, or on the green arrows for adjacent maps.


METAR-TAF: